aviador You're here:

KGGE Decoded Metar

GEORGETOWN in SC, USA
Report Time2018-02-19 11:55:00
UTC Time2018-02-19 12:10:35
Flight Rules ifr IFR
Wind040° at 03 kt
W.Decomp.*RWY 05: 3.0 kt HW 0.2 kt LCW
RWY 11: 1.3 kt HW 2.7 kt LCW
W.Rank040° ranks 14
Current wind is below 040° avg. (6.8)
Visibility9999 m
Phenomena:N/A
Clouds:Overcast 006 Hf
Ceiling600 ft
Temp12°C (ISA -3)
Dew Point12°C (100% RH)
AAT11.5°C
QNH1029 hPa
Density Alt-663 ft
Elevation39 ft
Report Wrong Elevation
Raw Report
METAR KGGE 191155Z AUTO 04003KT 10SM OVC006 12/12 A3039 RMK AO2=

Extra information for KGGE:More info

Metar Taf Metar & Taf Last 4 Metars F.Rules Stats Wind Profile Meteogram Temp Stats Airport Information Weather charts Add Link Nearby VenuesMetar ALERT Operation Metar Decoded Social comments

AIRNAV info for KGGE